Flight Track Log - Related Links

Times and Time Zones

All times are in EDT time to prevent confusion due to time zone crossing. See the N213HP flight status page for this flight to view local times or setup timezone preferences in your user account.

Time Position Orientation Groundspeed Altitude Reporting Facility
EDT Latitude Longitude Course Direction KTS MPH feet Rate Location/Type
Sun 02:29:15 PM 39.2814 -106.9358 173° South 258 297 10,900  Level Denver Center
Sun 02:30:17 PM 39.3075 -107.0358 289° West 287 330 13,400 2,661 Climbing Denver Center
Sun 02:31:19 PM 39.2892 -107.1408 257° West 334 384 16,400 2,661 Climbing Denver Center
Sun 02:32:21 PM 39.1972 -107.1261 173° South 363 418 18,900 2,129 Climbing Denver Center
Sun 02:33:23 PM 39.1175 -107.0244 135° Southeast 370 426 20,800 1,920 Climbing Denver Center
Sun 02:34:00 PM 39.1198 -107.1167 180° South  Level FlightAware
Sun 02:34:26 PM 38.9881 -107.0158 177° South 414 476 22,900  Level Denver Center
Sun 02:35:00 PM 39.0299 -107.1105 173° South  Level FlightAware
Sun 02:35:28 PM 38.8722 -107.0231 183° South 420 483 25,000  Level Denver Center
Sun 02:36:30 PM 38.7531 -107.0272 182° South 426 490 27,100 2,032 Climbing Denver Center
Sun 02:37:32 PM 38.6333 -107.0331 182° South 427 491 29,200 1,548 Climbing Denver Center
Sun 02:38:34 PM 38.5133 -107.0364 181° South 429 494 30,300 1,065 Climbing Denver Center
Sun 02:39:36 PM 38.3736 -106.9611 157° South 462 532 31,400 1,016 Climbing Denver Center
Sun 02:40:38 PM 38.2936 -106.8233 126° Southeast 459 528 32,400 1,403 Climbing Denver Center
Sun 02:41:40 PM 38.2278 -106.6958 123° Southeast 454 522 34,300 1,935 Climbing Denver Center
Sun 02:42:42 PM 38.1497 -106.5586 126° Southeast 430 495 36,400 1,200 Climbing Denver Center
Sun 02:43:45 PM 38.0886 -106.4481 125° Southeast 436 502 36,800 432 Climbing Denver Center
Sun 02:44:47 PM 38.0133 -106.3064 124° Southeast 447 514 37,300 581 Climbing Denver Center
Sun 02:45:49 PM 37.9278 -106.1581 126° Southeast 462 532 38,000 838 Climbing Denver Center
Sun 02:47:03 PM 37.8308 -105.9900 126° Southeast 461 531 39,200 485 Climbing Denver Center
Sun 02:48:05 PM 37.7586 -105.8636 126° Southeast 461 531 39,100 -144 Descending Denver Center
Sun 02:49:08 PM 37.6708 -105.7089 126° Southeast 481 554 38,900 -96 Descending Denver Center
Sun 02:50:10 PM 37.5950 -105.5781 126° Southeast 482 555 38,900  Level Denver Center
Sun 02:51:12 PM 37.5083 -105.4253 126° Southeast 483 556 38,900  Level Denver Center
Sun 02:52:14 PM 37.4325 -105.2933 126° Southeast 483 556 38,900 290 Level Denver Center
Sun 02:53:16 PM 37.3428 -105.1386 126° Southeast 487 560 39,500 532 Climbing Denver Center
Sun 02:54:18 PM 37.2683 -105.0094 126° Southeast 485 558 40,000 581 Climbing Denver Center
Sun 02:55:20 PM 37.1808 -104.8622 127° Southeast 478 550 40,700 581 Climbing Denver Center
Sun 02:56:22 PM 37.1075 -104.7372 126° Southeast 473 544 41,200 194 Climbing Denver Center
Sun 02:57:24 PM 37.0208 -104.5914 127° Southeast 468 539 41,100 -144 Descending Denver Center
Sun 02:58:27 PM 36.9439 -104.4625 127° Southeast 477 549 40,900 -53 Descending Denver Center
Sun 02:59:17 PM 36.8783 -104.3508 126° Southeast 490 564 41,000 54 Climbing Albuquerque Center
Sun 03:00:19 PM 36.7856 -104.1972 127° Southeast 496 571 41,000  Level Albuquerque Center
Sun 03:01:21 PM 36.7056 -104.0633 127° Southeast 502 578 41,000 -48 Level Albuquerque Center
Sun 03:02:23 PM 36.6203 -103.9167 126° Southeast 502 578 40,900  Descending Albuquerque Center
Sun 03:03:25 PM 36.5564 -103.7653 118° Southeast 494 568 41,000 48 Climbing Albuquerque Center
Sun 03:04:28 PM 36.4775 -103.5906 119° Southeast 492 566 41,000  Level Albuquerque Center
Sun 03:05:30 PM 36.4094 -103.4389 119° Southeast 495 570 41,000  Level Albuquerque Center
Sun 03:06:32 PM 36.3425 -103.2911 119° Southeast 489 563 41,000  Level Albuquerque Center
Sun 03:07:34 PM 36.2731 -103.1403 120° Southeast 494 568 41,000  Level Albuquerque Center
Sun 03:08:36 PM 36.2047 -102.9925 120° Southeast 491 565 41,000 -48 Level Albuquerque Center
Sun 03:09:38 PM 36.1311 -102.8322 120° Southeast 491 565 40,900 -48 Descending Albuquerque Center
Sun 03:10:40 PM 36.0633 -102.6867 120° Southeast 490 564 40,900 48 Level Albuquerque Center
Sun 03:11:42 PM 35.9958 -102.5403 120° Southeast 490 564 41,000 48 Climbing Albuquerque Center
Sun 03:12:44 PM 35.9297 -102.3972 120° Southeast 484 557 41,000  Level Albuquerque Center
Sun 03:13:46 PM 35.8625 -102.2553 120° Southeast 480 552 41,000 -48 Level Albuquerque Center
Sun 03:14:48 PM 35.7967 -102.1144 120° Southeast 475 547 40,900 -48 Descending Albuquerque Center
Sun 03:15:50 PM 35.7169 -101.9475 120° Southeast 472 543 40,900  Level Albuquerque Center
Sun 03:16:52 PM 35.6517 -101.8100 120° Southeast 466 536 40,900 48 Level Albuquerque Center
Sun 03:17:54 PM 35.5858 -101.6719 120° Southeast 466 536 41,000  Climbing Albuquerque Center
Sun 03:18:56 PM 35.5203 -101.5322 120° Southeast 466 536 40,900 -48 Descending Albuquerque Center
Sun 03:19:58 PM 35.4489 -101.3783 120° Southeast 466 536 40,900 48 Level Albuquerque Center
Sun 03:21:01 PM 35.3858 -101.2525 122° Southeast 471 542 41,000 48 Climbing Albuquerque Center
Sun 03:22:03 PM 35.3181 -101.1139 121° Southeast 472 543 41,000  Level Albuquerque Center
Sun 03:23:05 PM 35.2511 -100.9761 121° Southeast 471 542 41,000 -48 Level Albuquerque Center
Sun 03:24:07 PM 35.1706 -100.8106 121° Southeast 471 542 40,900  Descending Albuquerque Center
Sun 03:25:09 PM 35.1028 -100.6731 121° Southeast 471 542 41,000 48 Climbing Albuquerque Center
Sun 03:26:11 PM 35.0350 -100.5347 121° Southeast 474 545 41,000 -48 Level Albuquerque Center
Sun 03:27:13 PM 34.9672 -100.3975 121° Southeast 473 544 40,900 -48 Descending Albuquerque Center
Sun 03:28:15 PM 34.8922 -100.2478 121° Southeast 478 550 40,900 -97 Level Albuquerque Center
Sun 03:29:17 PM 34.8222 -100.1083 121° Southeast 482 555 40,700 -339 Descending Albuquerque Center
Sun 03:30:19 PM 34.7514 -99.9658 121° Southeast 490 564 40,200 -484 Descending Albuquerque Center
Sun 03:31:21 PM 34.6769 -99.8203 122° Southeast 502 578 39,700 -621 Descending Albuquerque Center
Sun 03:32:44 PM 34.5753 -99.6172 121° Southeast 502 578 38,700 -869 Descending Fort Center
Sun 03:33:46 PM 34.5039 -99.4769 122° Southeast 493 567 37,600 -1,113 Descending Fort Center
Sun 03:34:48 PM 34.4200 -99.3147 122° Southeast 481 554 36,400 -1,113 Descending Fort Center
Sun 03:35:50 PM 34.3489 -99.1764 122° Southeast 480 552 35,300 -1,016 Descending Fort Center
Sun 03:36:52 PM 34.2803 -99.0419 122° Southeast 479 551 34,300 -1,210 Descending Fort Center
Sun 03:37:54 PM 34.2103 -98.9075 122° Southeast 476 548 32,800 -1,210 Descending Fort Center
Sun 03:38:56 PM 34.1386 -98.7697 122° Southeast 479 551 31,800 -1,016 Descending Fort Center
Sun 03:39:58 PM 34.0606 -98.6211 122° Southeast 479 551 30,700 -1,016 Descending Fort Center
Sun 03:41:00 PM 33.9967 -98.4978 122° Southeast 443 510 29,700 -1,016 Descending Fort Center
Sun 03:42:02 PM 33.9344 -98.3789 122° Southeast 426 490 28,600 -1,728 Descending Fort Center
Sun 03:43:05 PM 33.8744 -98.2650 122° Southeast 410 472 26,100 -2,640 Descending Fort Center
Sun 03:44:07 PM 33.8058 -98.1342 122° Southeast 390 449 23,100 -2,758 Descending Fort Center
Sun 03:45:09 PM 33.7494 -98.0267 122° Southeast 367 422 20,400 -2,613 Descending Fort Center
Sun 03:46:11 PM 33.6942 -97.9228 123° Southeast 354 407 17,700 -2,710 Descending Fort Center
Sun 03:47:13 PM 33.6436 -97.8272 122° Southeast 352 405 14,800 -2,516 Descending Fort Center
Sun 03:48:15 PM 33.5881 -97.7244 123° Southeast 347 399 12,500 -1,887 Descending Fort Center
Sun 03:49:17 PM 33.5258 -97.6119 124° Southeast 377 434 10,900 -1,161 Descending Fort Center
Sun 03:50:19 PM 33.4761 -97.5139 121° Southeast 344 396 10,100 -1,016 Descending Fort Center
Sun 03:51:21 PM 33.4275 -97.4417 129° Southeast 286 329 8,800 -1,392 Descending Fort Center
Sun 03:52:24 PM 33.3911 -97.3622 119° Southeast 256 295 7,200 -1,440 Descending Fort Center
Sun 03:53:26 PM 33.3697 -97.2800 107° East 259 298 5,800 -1,306 Descending Fort Center
Sun 03:54:28 PM 33.3422 -97.1894 110° East 265 305 4,500 -823 Descending Fort Center
Sun 03:55:30 PM 33.3067 -97.1083 118° Southeast 275 316 4,100 -242 Descending Fort Center
Sun 03:56:32 PM 33.2553 -97.0411 132° Southeast 274 315 4,000 -387 Descending Fort Center
Sun 03:57:34 PM 33.2058 -96.9678 129° Southeast 266 306 3,300 -484 Descending Fort Center
Sun 03:58:36 PM 33.1547 -96.8967 131° Southeast 276 318 3,000 -149 Descending Fort Center
Sun 03:59:35 PM 33.1000 -96.8333 136° Southeast 278 320 3,000 -50 Level Dallas TRACON
Sun 04:00:35 PM 33.0333 -96.7833 148° Southeast 255 293 2,900 -350 Descending Dallas TRACON
Sun 04:01:35 PM 32.9667 -96.7500 157° South 224 258 2,300 -450 Descending Dallas TRACON
Sun 04:02:35 PM 32.9333 -96.7667 203° Southwest 178 205 2,000 -476 Descending Dallas TRACON
Sun 04:03:41 PM 32.9333 -96.8167 270° West 129 148 1,300 -636 Descending Dallas TRACON

Login

Don't have an account? Register now (free) for customized features, flight alerts, and more!